METAR AND TAF INFORMATION
METAR FOR HEGN
ADDS - METARS form results

(0330 UTC 29 February 2020)
Data provider http://aviationweather.gov/metar/data/
 
METAR text: HEGN 290300Z 29010KT CAVOK 17/M03 Q1013 NOSIG
Conditions at: HEGN (HURGUADA , EG) observed 0300 UTC 29 February 2020
Temperature: 17.0°C (63°F)
Dewpoint: -3.0°C (27°F) [RH = 25%]
Pressure (altimeter): 29.91 inches Hg (1013.0 mb)
Winds: from the WNW (290 degrees) at 12 MPH (10 knots; 5.1 m/s)
Visibility: 6 or more miles (10+ km)
Ceiling: ceiling and visibility are OK
Clouds: unknown
Weather: no significant weather observed at this time

Forecast for: HEGN (HURGUADA , EG)
Text: TAF HEGN 282300Z 2900/0106 28010KT CAVOK
Forecast period: 0000 UTC 29 February 2020 to 0600 UTC 01 March 2020
Forecast type: FROM: standard forecast or significant change
Winds: from the W (280 degrees) at 12 MPH (10 knots; 5.1 m/s)
Visibility: 6 or more miles 10+ km)
Ceiling: unknown
Clouds: missing
Weather: NSW  (no significant weather)

 AIRPORT MAP

 RUNWAY INFORMATION

 AIRPORT FREQUENCIES
Type APP Name RADAR Frequency 123.4 MHZ
Type GND Name GND Frequency 121.9 MHZ
Type RDO Name RDO Frequency 585.9 MHZ
Type TWR Name TWR Frequency 119.6 MHZ

 AIRPORT NEAR NAVIGATION AIDS
Type VOR-DME Name Hurghada Frequency 116500 KHZ



2018 Air Astana Virtual Airline